Aérodrome :
LOGIN :

S'inscrire | Disclaimer

   EN    FR    IT 

 










Légende :    VFR   VFR Marginal   IFR   IFR Intensif   IFR Très Intensif
Visi : 
Plafond : 
>= 8 km
>= 3000ft
5 à 8 km
1000 à 3000 ft
1500m à 5 km
500 à 1000 ft
800 à 1500m
200 à 500 ft
< 800m
< 200 ft
Symboles :   Orages  Brouillard  Fortes neiges  Fortes précipitations  Vent > 20 kt
SIGMETs :   Divers  Orages  Givrage  Turbulence  Onde Orograph.  Cendres Volcan.






- Altitude de l'aérodrome : 1276 ft
- Code IATA : STR


EDDS - Stuttgart

DERNIER METAR :
  • 240120Z 22003KT 170V260 9999 OVC010 M02/M04 Q1025

METARs EXPIRÉS :
  • 240050Z 21003KT 160V260 9999 OVC010 M02/M04 Q1025
  • 240020Z 19004KT 170V230 9999 FEW008 BKN010 M02/M04 Q1025
  • 232350Z 19004KT 160V220 9999 FEW008 OVC011 M02/M04 Q1026
  • 232320Z 21003KT 180V250 9000 SCT008 OVC010 M02/M04 Q1026
  • 232250Z 18005KT 140V210 9000 SCT008 OVC010 M01/M04 Q1026

TAF TAF EDDS
Valide du 24 à 00h jusqu'au 25 à 00h UTC


232300Z 2400/2424 VRB02KT 8000 SCT008 BKN015
TEMPO 2400/2409 2500 BR BKN004
PROB30
TEMPO 2404/2408 0200 FZFG VV001
BECMG 2421/2424 4000 BR BKN010



MET'MAP, la Météo Aéronautique d'un coup d'oeil ! - Copyright ORBIFLY Décembre 2007 - Disclaimer

ORBIFLY MET'MAP TEAM :

Programmation & Développement : Alexandra Zaïnal
Sur une idée originale de : Baudouin d'Aumeries
Assistance à la programmation : Marc-Olivier Méhu
Soutien technique & logistique : Manuel Goepfert

Contact : metmap@orbifly.com




SOURCES & CREDITS :

   NOAA